Time;durP1;ratioP1;P1;durP2;ratioP2;P2;SDS_P1;SDS_P2;PMS_P1;PMS_P2;Temp;Humidity;BMP_temperature;BMP_pressure;BME280_temperature;BME280_humidity;BME280_pressure;Samples;Min_cycle;Max_cycle;Signal;HPM_P1;HPM_P2
2021/09/23 00:01:55;;;;;;;;;;;;;;;12.83;75.24;101732.88;15562532;28;20042;-59
2021/09/23 00:09:28;;;;;;;1999.90;999.90;;;;;;;12.73;75.25;101726.72;15560259;28;19957;-57
2021/09/23 00:17:01;;;;;;;;;;;;;;;12.77;75.49;101703.34;15558770;28;20048;-57
2021/09/23 00:24:34;;;;;;;1999.90;999.90;;;;;;;12.74;75.96;101672.38;15538831;28;20024;-57
2021/09/23 00:32:07;;;;;;;1999.90;999.90;;;;;;;12.75;75.60;101680.44;15557561;28;20402;-59
2021/09/23 00:39:41;;;;;;;1999.90;999.90;;;;;;;12.64;75.87;101679.09;15555387;28;20452;-57
2021/09/23 00:47:13;;;;;;;;;;;;;;;12.89;76.70;101666.31;15555752;28;20045;-58
2021/09/23 00:54:50;;;;;;;1999.90;999.90;;;;;;;12.87;76.99;101637.81;15554693;28;19929;-59
2021/09/23 01:02:23;;;;;;;1999.90;999.90;;;;;;;12.86;76.45;101644.56;15554686;28;20447;-58
2021/09/23 01:10:02;;;;;;;1999.90;999.90;;;;;;;12.77;75.98;101643.72;15554641;28;20038;-57
2021/09/23 01:17:36;;;;;;;1999.90;999.90;;;;;;;12.66;75.70;101646.81;15553357;28;20042;-59
2021/09/23 01:25:13;;;;;;;1999.90;999.90;;;;;;;12.50;76.76;101616.75;15553709;28;20082;-56
2021/09/23 01:32:47;;;;;;;1999.90;999.90;;;;;;;12.61;77.03;101610.56;15536687;28;20137;-59
2021/09/23 01:40:23;;;;;;;1999.90;999.90;;;;;;;12.86;76.82;101603.38;15536631;28;20046;-58
2021/09/23 01:47:56;;;;;;;1999.90;999.90;;;;;;;12.61;77.73;101582.56;15553272;28;20490;-57
2021/09/23 01:55:32;;;;;;;1999.90;999.90;;;;;;;12.78;77.90;101566.94;15536579;28;20522;-57
2021/09/23 02:03:06;;;;;;;1999.90;999.90;;;;;;;12.81;77.72;101547.50;15535998;28;20058;-57
2021/09/23 02:11:00;;;;;;;1999.90;999.90;;;;;;;12.85;77.08;101559.69;15552308;28;20054;-60
2021/09/23 02:18:41;;;;;;;1999.90;999.90;;;;;;;12.73;76.85;101572.72;15555576;28;20080;-60
2021/09/23 02:26:15;;;;;;;1999.90;999.90;;;;;;;12.62;77.66;101544.19;15546716;28;20141;-60
2021/09/23 02:33:48;;;;;;;1999.90;999.90;;;;;;;12.64;78.79;101539.91;15548343;28;20061;-61
2021/09/23 02:41:22;;;;;;;1999.90;999.90;;;;;;;12.95;77.88;101528.56;15562267;28;20095;-59
2021/09/23 02:48:55;;;;;;;1999.90;999.90;;;;;;;12.81;78.08;101513.06;15525615;28;20530;-58
2021/09/23 02:56:29;;;;;;;1999.90;999.90;;;;;;;12.68;78.58;101510.09;15565242;28;20038;-56
2021/09/23 03:04:01;;;;;;;1999.90;999.90;;;;;;;12.57;78.95;101499.53;15564782;28;20056;-56
2021/09/23 03:11:36;;;;;;;1999.90;999.90;;;;;;;12.57;78.92;101485.53;15543490;28;20045;-56
2021/09/23 03:19:08;;;;;;;1999.90;999.90;;;;;;;12.48;79.07;101474.31;15560514;28;20093;-57
2021/09/23 03:26:44;;;;;;;1999.90;999.90;;;;;;;12.46;79.05;101457.03;15513852;28;20069;-57
2021/09/23 03:34:16;;;;;;;1999.90;999.90;;;;;;;12.49;78.72;101450.78;15560136;28;20104;-58
2021/09/23 03:41:49;;;;;;;1999.90;999.90;;;;;;;12.36;79.18;101446.97;15561473;28;20125;-58
2021/09/23 03:49:21;;;;;;;;;;;;;;;12.54;78.82;101445.03;15560086;28;20494;-57
2021/09/23 03:56:55;;;;;;;1999.90;999.90;;;;;;;12.50;78.74;101446.00;15559402;28;19925;-58
2021/09/23 04:04:27;;;;;;;1999.90;999.90;;;;;;;12.46;78.13;101437.44;15542104;28;20488;-57
2021/09/23 04:12:01;;;;;;;1999.90;999.90;;;;;;;12.23;79.38;101435.94;15540582;28;20042;-56
2021/09/23 04:19:34;;;;;;;1999.90;999.90;;;;;;;12.44;77.83;101425.75;15557005;28;20046;-60
2021/09/23 04:27:08;;;;;;;1999.90;999.90;;;;;;;12.54;77.78;101422.63;15540623;28;20038;-60
2021/09/23 04:34:41;;;;;;;1999.90;999.90;;;;;;;12.49;78.67;101407.97;15556034;28;20103;-58
2021/09/23 04:42:17;;;;;;;1999.90;999.90;;;;;;;12.51;78.48;101395.31;15543059;28;20085;-59
2021/09/23 04:49:50;;;;;;;1999.90;999.90;;;;;;;12.36;79.76;101385.41;15555543;28;20046;-59
2021/09/23 04:57:23;;;;;;;1999.90;999.90;;;;;;;12.29;80.68;101375.84;15555893;28;20242;-58
2021/09/23 05:04:57;;;;;;;1999.90;999.90;;;;;;;12.62;79.25;101374.22;15519577;28;20054;-59
2021/09/23 05:12:30;;;;;;;1999.90;999.90;;;;;;;12.81;78.46;101375.81;15546197;28;20030;-59
2021/09/23 05:20:03;;;;;;;1999.90;999.90;;;;;;;12.40;79.66;101371.56;15512303;28;20076;-59
2021/09/23 05:27:37;;;;;;;1999.90;999.90;;;;;;;12.25;80.79;101361.72;15554585;28;20046;-60
2021/09/23 05:35:10;;;;;;;1999.90;999.90;;;;;;;12.39;80.50;101344.75;15554191;28;20045;-59
2021/09/23 05:42:45;;;;;;;1999.90;999.90;;;;;;;12.79;79.23;101352.94;15549456;28;20046;-60
2021/09/23 05:50:18;;;;;;;1999.90;999.90;;;;;;;13.07;78.54;101358.97;15506404;28;20038;-59
2021/09/23 05:57:56;;;;;;;1999.90;999.90;;;;;;;13.29;78.15;101359.56;15560727;28;20442;-59
2021/09/23 06:05:28;;;;;;;;;;;;;;;13.76;77.92;101355.88;15567341;28;20050;-57
2021/09/23 06:13:02;;;;;;;1999.90;999.90;;;;;;;13.97;77.90;101361.53;15563897;28;19964;-59
2021/09/23 06:20:35;;;;;;;1999.90;999.90;;;;;;;14.14;77.53;101364.19;15562288;28;20384;-60
2021/09/23 06:28:10;;;;;;;1999.90;999.90;;;;;;;14.34;77.33;101340.09;15553090;28;20480;-60
2021/09/23 06:35:43;;;;;;;1999.90;999.90;;;;;;;14.47;76.71;101329.78;15555252;28;20530;-58
2021/09/23 06:43:17;;;;;;;1999.90;999.90;;;;;;;14.94;75.35;101325.50;15546510;28;20046;-60
2021/09/23 06:50:49;;;;;;;1999.90;999.90;;;;;;;15.02;74.92;101307.72;15553578;28;20100;-61
2021/09/23 06:58:23;;;;;;;1999.90;999.90;;;;;;;15.85;72.64;101311.25;15557116;28;20049;-60
2021/09/23 07:06:14;;;;;;;1999.90;999.90;;;;;;;16.09;71.25;101297.09;15547597;28;20065;-60
2021/09/23 07:13:48;;;;;;;1999.90;999.90;;;;;;;16.74;69.93;101294.16;15560962;28;20092;-58
2021/09/23 07:21:20;;;;;;;1999.90;999.90;;;;;;;17.01;69.26;101292.47;15544621;28;20505;-58
2021/09/23 07:28:54;;;;;;;1999.90;999.90;;;;;;;17.77;67.28;101281.84;15557640;28;20115;-61
2021/09/23 07:36:29;;;;;;;1999.90;999.90;;;;;;;18.11;65.80;101277.34;15554984;28;20050;-56
2021/09/23 07:44:02;;;;;;;1999.90;999.90;;;;;;;18.35;64.67;101243.16;15551409;28;20073;-59
2021/09/23 07:51:35;;;;;;;1999.90;999.90;;;;;;;18.86;62.65;101234.47;15562499;28;20085;-58
2021/09/23 07:59:09;;;;;;;1999.90;999.90;;;;;;;19.27;61.72;101231.88;15535111;28;20045;-59
2021/09/23 08:06:42;;;;;;;1999.90;999.90;;;;;;;19.12;61.12;101213.88;15558680;28;20042;-59
2021/09/23 08:14:15;;;;;;;1999.90;999.90;;;;;;;20.05;59.19;101201.88;15556871;28;20099;-56
2021/09/23 08:21:49;;;;;;;1999.90;999.90;;;;;;;19.99;58.51;101199.78;15557429;28;20502;-57
2021/09/23 08:29:24;;;;;;;1999.90;999.90;;;;;;;20.37;58.47;101173.91;15557159;28;20126;-57
2021/09/23 08:36:56;;;;;;;1999.90;999.90;;;;;;;20.35;57.72;101161.34;15556235;28;20077;-56
2021/09/23 08:44:30;;;;;;;1999.90;999.90;;;;;;;19.66;56.79;101135.44;15556246;28;20100;-57
2021/09/23 08:52:03;;;;;;;1999.90;999.90;;;;;;;19.35;57.62;101120.44;15555770;28;20064;-57
2021/09/23 08:59:37;;;;;;;1999.90;999.90;;;;;;;19.57;58.21;101121.59;15539683;28;20049;-57
2021/09/23 09:07:10;;;;;;;1999.90;999.90;;;;;;;20.17;56.88;101110.16;15554462;28;20040;-59
2021/09/23 09:15:11;;;;;;;1999.90;999.90;;;;;;;21.14;54.64;101092.72;15532524;28;20088;-60
2021/09/23 09:22:44;;;;;;;1999.90;999.90;;;;;;;21.15;54.67;101082.19;15529006;28;20044;-58
2021/09/23 09:30:22;;;;;;;1999.90;999.90;;;;;;;20.87;56.19;101060.16;15492026;28;20050;-60
2021/09/23 09:37:59;;;;;;;1999.90;999.90;;;;;;;20.75;55.54;101053.59;15492700;28;20050;-58
2021/09/23 09:45:34;;;;;;;1999.90;999.90;;;;;;;21.48;54.54;101045.09;15492754;28;20642;-59
2021/09/23 09:53:11;;;;;;;1999.90;999.90;;;;;;;22.88;52.29;101026.97;15508449;28;20490;-59
2021/09/23 10:00:45;;;;;;;1999.90;999.90;;;;;;;22.52;51.17;101014.03;15475958;28;20050;-60
2021/09/23 10:08:19;;;;;;;1999.90;999.90;;;;;;;22.97;49.18;101012.34;15492025;28;20046;-59
2021/09/23 10:15:54;;;;;;;1999.90;999.90;;;;;;;21.85;50.07;101005.03;15475553;28;20050;-58
2021/09/23 10:23:30;;;;;;;1999.90;999.90;;;;;;;21.24;52.23;100991.84;15524088;28;20045;-57
2021/09/23 10:31:10;;;;;;;1999.90;999.90;;;;;;;21.85;51.52;100987.97;15552999;28;20038;-57
2021/09/23 10:38:44;;;;;;;1999.90;999.90;;;;;;;22.11;49.20;100961.25;15554313;28;20045;-59
2021/09/23 10:46:21;;;;;;;1999.90;999.90;;;;;;;21.51;51.79;100936.41;15551961;28;20123;-61
2021/09/23 10:53:57;;;;;;;1999.90;999.90;;;;;;;21.53;51.74;100918.97;15547743;28;20042;-60
2021/09/23 11:01:36;;;;;;;1999.90;999.90;;;;;;;21.28;51.11;100904.75;15540787;28;20261;-56
2021/09/23 11:09:18;;;;;;;1999.90;999.90;;;;;;;21.68;51.35;100902.78;15530671;28;20121;-58
2021/09/23 11:16:58;;;;;;;1999.90;999.90;;;;;;;21.15;51.16;100898.56;15552271;28;20104;-59
2021/09/23 11:24:31;;;;;;;1999.90;999.90;;;;;;;21.57;50.79;100882.88;15544473;28;20048;-60
2021/09/23 11:32:07;;;;;;;1999.90;999.90;;;;;;;22.11;49.56;100861.78;15556429;28;20049;-56
2021/09/23 11:39:47;;;;;;;1999.90;999.90;;;;;;;22.97;47.95;100833.88;15558442;28;20049;-57
2021/09/23 11:47:21;;;;;;;1999.90;999.90;;;;;;;23.10;47.92;100814.28;15557185;28;20046;-60
2021/09/23 11:54:54;;;;;;;1999.90;999.90;;;;;;;22.55;49.56;100814.97;15555734;28;20050;-58
2021/09/23 12:02:31;;;;;;;;;;;;;;;23.08;48.83;100798.84;15539668;28;20042;-58
2021/09/23 12:10:06;;;;;;;1999.90;999.90;;;;;;;23.50;47.69;100792.03;15543541;28;19921;-56
2021/09/23 12:17:54;;;;;;;1999.90;999.90;;;;;;;23.35;47.88;100784.84;15558624;28;20401;-57
2021/09/23 12:25:28;;;;;;;1999.90;999.90;;;;;;;22.75;47.29;100767.72;15532978;28;20120;-59
2021/09/23 12:33:03;;;;;;;1999.90;999.90;;;;;;;22.07;46.63;100735.94;15557938;28;20111;-58
2021/09/23 12:40:35;;;;;;;1999.90;999.90;;;;;;;22.15;47.23;100728.22;15543797;28;20100;-59
2021/09/23 12:48:15;;;;;;;1999.90;999.90;;;;;;;22.65;46.20;100725.94;15556191;28;20065;-59
2021/09/23 12:55:48;;;;;;;1999.90;999.90;;;;;;;22.93;46.49;100707.91;15555806;28;20300;-58
2021/09/23 13:03:22;;;;;;;1999.90;999.90;;;;;;;23.13;45.38;100681.72;15555640;28;20121;-56
2021/09/23 13:11:10;;;;;;;1999.90;999.90;;;;;;;22.92;45.16;100654.25;15554505;28;20042;-56
2021/09/23 13:19:01;;;;;;;1999.90;999.90;;;;;;;23.38;45.00;100644.50;15554310;28;20476;-59
2021/09/23 13:26:53;;;;;;;1999.90;999.90;;;;;;;22.92;45.62;100623.75;15544556;28;20053;-60
2021/09/23 13:34:27;;;;;;;1999.90;999.90;;;;;;;22.14;45.88;100613.75;15541820;28;20104;-57
2021/09/23 13:42:04;;;;;;;1999.90;999.90;;;;;;;22.51;45.28;100600.09;15527996;23;20064;-54
2021/09/23 13:50:06;;;;;;;1999.90;999.90;;;;;;;22.21;45.45;100603.56;15559500;28;20179;-55
2021/09/23 13:57:40;;;;;;;1999.90;999.90;;;;;;;22.23;46.57;100595.44;15542263;28;20494;-54
2021/09/23 14:05:15;;;;;;;1999.90;999.90;;;;;;;22.14;45.37;100595.91;15515262;28;20525;-54
2021/09/23 14:12:50;;;;;;;1999.90;999.90;;;;;;;22.11;46.10;100600.38;15533582;28;20121;-53
2021/09/23 14:20:29;;;;;;;1999.90;999.90;;;;;;;22.13;47.13;100599.97;15543385;28;20386;-55
2021/09/23 14:28:04;;;;;;;1999.90;999.90;;;;;;;22.08;46.87;100592.66;15543519;28;20085;-52
2021/09/23 14:35:38;;;;;;;1999.90;999.90;;;;;;;21.94;46.73;100587.03;15528083;28;20061;-53
2021/09/23 14:43:11;;;;;;;1999.90;999.90;;;;;;;22.05;47.49;100567.91;15560241;28;20045;-55
2021/09/23 14:50:44;;;;;;;1999.90;999.90;;;;;;;22.07;47.22;100539.91;15560106;28;20096;-55
2021/09/23 14:58:16;;;;;;;1999.90;999.90;;;;;;;21.97;47.99;100518.03;15539278;28;20088;-53
2021/09/23 15:05:51;;;;;;;1999.90;999.90;;;;;;;21.79;47.23;100517.34;15551130;28;20045;-52
2021/09/23 15:13:23;;;;;;;1999.90;999.90;;;;;;;21.61;47.31;100504.06;15553966;28;20116;-54
2021/09/23 15:20:58;;;;;;;1999.90;999.90;;;;;;;21.53;47.46;100490.31;15556061;28;20104;-51
2021/09/23 15:28:34;;;;;;;1999.90;999.90;;;;;;;21.56;46.98;100490.28;15508288;28;20737;-49
2021/09/23 15:36:10;;;;;;;1999.90;999.90;;;;;;;21.23;46.83;100480.25;15536524;28;20136;-54
2021/09/23 15:43:43;;;;;;;1999.90;999.90;;;;;;;21.22;47.32;100458.78;15554645;28;20104;-60
2021/09/23 15:51:16;;;;;;;1999.90;999.90;;;;;;;21.21;46.88;100437.31;15537139;28;20080;-54
2021/09/23 15:58:49;;;;;;;1999.90;999.90;;;;;;;20.92;47.66;100418.78;15555382;28;20069;-50
2021/09/23 16:06:22;;;;;;;1999.90;999.90;;;;;;;20.99;47.84;100413.09;15517944;28;20050;-52
2021/09/23 16:13:55;;;;;;;1999.90;999.90;;;;;;;20.87;48.51;100403.03;15553889;28;20096;-50
2021/09/23 16:21:28;;;;;;;1999.90;999.90;;;;;;;20.87;48.69;100376.69;15553532;28;20391;-52
2021/09/23 16:29:01;;;;;;;1999.90;999.90;;;;;;;20.83;49.17;100364.53;15519636;28;20058;-53
2021/09/23 16:36:34;;;;;;;1999.90;999.90;;;;;;;20.72;49.94;100365.38;15552321;28;20054;-51
2021/09/23 16:44:07;;;;;;;1999.90;999.90;;;;;;;20.63;50.23;100386.88;15552588;28;20100;-54
2021/09/23 16:51:42;;;;;;;1999.90;999.90;;;;;;;20.88;50.76;100396.13;15550279;28;20121;-58
2021/09/23 16:59:14;;;;;;;1999.90;999.90;;;;;;;20.83;51.58;100402.22;15550687;28;20081;-53
2021/09/23 17:06:49;;;;;;;1999.90;999.90;;;;;;;20.87;52.03;100388.84;15516174;28;20054;-51
2021/09/23 17:14:21;;;;;;;1999.90;999.90;;;;;;;20.63;52.99;100373.53;15543289;28;20045;-51
2021/09/23 17:21:55;;;;;;;1999.90;999.90;;;;;;;20.57;53.39;100372.34;15530008;28;20208;-51
2021/09/23 17:29:27;;;;;;;1999.90;999.90;;;;;;;20.46;54.12;100380.06;15550218;28;20142;-55
2021/09/23 17:37:01;;;;;;;1999.90;999.90;;;;;;;20.31;54.80;100358.59;15532515;28;20148;-55
2021/09/23 17:44:33;;;;;;;1999.90;999.90;;;;;;;20.32;55.73;100346.88;15531786;28;20813;-57
2021/09/23 17:52:07;;;;;;;1999.90;999.90;;;;;;;20.36;55.67;100341.19;15531162;28;20121;-56
2021/09/23 17:59:41;;;;;;;1999.90;999.90;;;;;;;20.32;56.15;100351.72;15548931;28;20042;-58
2021/09/23 18:07:15;;;;;;;1999.90;999.90;;;;;;;20.15;56.65;100354.19;15531410;28;20077;-59
2021/09/23 18:14:53;;;;;;;1999.90;999.90;;;;;;;20.32;56.60;100357.38;15534505;28;20081;-53
2021/09/23 18:22:27;;;;;;;1999.90;999.90;;;;;;;20.27;56.60;100360.66;15550296;28;20114;-55
2021/09/23 18:29:59;;;;;;;1999.90;999.90;;;;;;;20.19;57.43;100351.34;15532689;28;20419;-56
2021/09/23 18:37:33;;;;;;;1999.90;999.90;;;;;;;20.28;57.53;100357.41;15549895;28;20050;-60
2021/09/23 18:45:07;;;;;;;1999.90;999.90;;;;;;;20.09;58.13;100321.00;15540913;28;20045;-58
2021/09/23 18:52:41;;;;;;;1999.90;999.90;;;;;;;20.59;57.42;100346.41;15545672;28;20045;-49
2021/09/23 19:00:14;;;;;;;1999.90;999.90;;;;;;;20.32;58.05;100348.88;15530164;28;20088;-49
2021/09/23 19:07:48;;;;;;;1999.90;999.90;;;;;;;20.34;58.51;100349.31;15521782;28;20446;-53
2021/09/23 19:15:22;;;;;;;1999.90;999.90;;;;;;;20.03;59.54;100359.47;15556429;28;20080;-58
2021/09/23 19:22:56;;;;;;;1999.90;999.90;;;;;;;19.23;65.46;100382.41;15539197;28;20486;-52
2021/09/23 19:30:29;;;;;;;1999.90;999.90;;;;;;;18.59;71.09;100396.25;15551109;28;20094;-55
2021/09/23 19:38:03;;;;;;;1999.90;999.90;;;;;;;18.83;71.94;100434.34;15518011;28;20330;-59
2021/09/23 19:45:38;;;;;;;1999.90;999.90;;;;;;;17.18;77.91;100428.47;15519700;28;20095;-58
2021/09/23 19:53:12;;;;;;;1999.90;999.90;;;;;;;16.73;78.60;100427.50;15551392;28;20042;-55
2021/09/23 20:00:44;;;;;;;1999.90;999.90;;;;;;;16.92;78.90;100437.81;15553688;28;20038;-54
2021/09/23 20:08:21;;;;;;;1999.90;999.90;;;;;;;17.15;77.50;100430.03;15538965;28;20045;-57
2021/09/23 20:16:01;;;;;;;;;;;;;;;17.05;76.60;100441.19;15529129;28;20074;-60
2021/09/23 20:23:35;;;;;;;1999.90;999.90;;;;;;;16.90;76.42;100440.22;15541528;28;20000;-51
2021/09/23 20:31:11;;;;;;;1999.90;999.90;;;;;;;16.80;76.01;100446.50;15530276;28;20092;-52
2021/09/23 20:38:44;;;;;;;1999.90;999.90;;;;;;;17.02;75.87;100439.97;15547740;28;20050;-53
2021/09/23 20:46:17;;;;;;;1999.90;999.90;;;;;;;17.11;75.25;100462.22;15546430;28;20132;-51
2021/09/23 20:53:50;;;;;;;1999.90;999.90;;;;;;;17.14;74.95;100464.25;15545349;28;20419;-52
2021/09/23 21:01:24;;;;;;;1999.90;999.90;;;;;;;16.90;73.94;100483.28;15546504;28;20050;-52
2021/09/23 21:08:57;;;;;;;1999.90;999.90;;;;;;;17.15;73.38;100497.69;15516450;28;20060;-52
2021/09/23 21:16:30;;;;;;;1999.90;999.90;;;;;;;17.29;72.40;100509.16;15548484;28;20565;-52
2021/09/23 21:24:04;;;;;;;1999.90;999.90;;;;;;;17.10;72.25;100489.59;15535037;28;20050;-51
2021/09/23 21:31:37;;;;;;;1999.90;999.90;;;;;;;16.76;73.37;100490.72;15549649;28;20394;-51
2021/09/23 21:39:12;;;;;;;1999.90;999.90;;;;;;;16.81;73.83;100463.03;15549355;28;20386;-55
2021/09/23 21:46:45;;;;;;;1999.90;999.90;;;;;;;17.06;72.26;100514.09;15548222;28;20045;-51
2021/09/23 21:54:18;;;;;;;1999.90;999.90;;;;;;;16.81;72.08;100476.31;15549714;28;20041;-54
2021/09/23 22:01:51;;;;;;;1999.90;999.90;;;;;;;16.82;70.72;100492.03;15548804;28;20502;-52
2021/09/23 22:09:24;;;;;;;1999.90;999.90;;;;;;;16.72;69.71;100485.03;15549073;28;20494;-52
2021/09/23 22:16:56;;;;;;;1999.90;999.90;;;;;;;16.47;69.87;100497.91;15548941;28;20050;-53
2021/09/23 22:24:30;;;;;;;1999.90;999.90;;;;;;;16.55;69.27;100511.69;15548140;28;20073;-56
2021/09/23 22:32:04;;;;;;;1999.90;999.90;;;;;;;16.45;68.13;100523.59;15548007;28;20380;-56
2021/09/23 22:39:37;;;;;;;1999.90;999.90;;;;;;;16.23;66.34;100535.72;15555596;28;20129;-56
2021/09/23 22:47:09;;;;;;;1999.90;999.90;;;;;;;16.29;64.66;100543.47;15506598;28;20526;-57
2021/09/23 22:54:43;;;;;;;1999.90;999.90;;;;;;;16.16;64.67;100571.00;15558786;28;20042;-59
2021/09/23 23:02:15;;;;;;;1999.90;999.90;;;;;;;16.44;64.56;100579.13;15557403;28;20565;-57
2021/09/23 23:09:49;;;;;;;1999.90;999.90;;;;;;;16.34;64.12;100576.13;15546905;28;20038;-57
2021/09/23 23:17:21;;;;;;;1999.90;999.90;;;;;;;16.37;64.56;100597.91;15539339;28;20121;-54
2021/09/23 23:24:55;;;;;;;1999.90;999.90;;;;;;;16.10;64.52;100600.63;15539335;28;20065;-54
2021/09/23 23:32:27;;;;;;;1999.90;999.90;;;;;;;16.09;63.63;100626.34;15556370;28;20409;-54
2021/09/23 23:40:02;;;;;;;1999.90;999.90;;;;;;;16.06;61.88;100636.34;15556773;28;20606;-53
2021/09/23 23:47:34;;;;;;;1999.90;999.90;;;;;;;15.76;62.40;100643.78;15503127;28;20075;-54
2021/09/23 23:55:08;;;;;;;1999.90;999.90;;;;;;;15.89;61.44;100648.06;15555843;28;20081;-52
